sensor_id;sensor_type;location;lat;lon;timestamp;P1;durP1;ratioP1;P2;durP2;ratioP2
1382;SDS011;685;47.196;11.880;2023-05-21T00:00:41;6.30;;;4.90;;
1382;SDS011;685;47.196;11.880;2023-05-21T00:03:08;6.20;;;4.97;;
1382;SDS011;685;47.196;11.880;2023-05-21T00:05:39;9.10;;;5.53;;
1382;SDS011;685;47.196;11.880;2023-05-21T00:08:06;8.00;;;5.20;;
1382;SDS011;685;47.196;11.880;2023-05-21T00:10:33;6.40;;;4.30;;
1382;SDS011;685;47.196;11.880;2023-05-21T00:13:00;6.33;;;5.10;;
1382;SDS011;685;47.196;11.880;2023-05-21T00:15:27;6.47;;;5.17;;
1382;SDS011;685;47.196;11.880;2023-05-21T00:17:54;6.17;;;5.30;;
1382;SDS011;685;47.196;11.880;2023-05-21T00:20:20;7.23;;;5.47;;
1382;SDS011;685;47.196;11.880;2023-05-21T00:22:49;5.57;;;4.17;;
1382;SDS011;685;47.196;11.880;2023-05-21T00:25:16;6.57;;;4.23;;
1382;SDS011;685;47.196;11.880;2023-05-21T00:27:42;6.13;;;4.60;;
1382;SDS011;685;47.196;11.880;2023-05-21T00:30:09;5.83;;;5.30;;
1382;SDS011;685;47.196;11.880;2023-05-21T00:32:37;6.00;;;4.93;;
1382;SDS011;685;47.196;11.880;2023-05-21T00:35:04;6.17;;;4.70;;
1382;SDS011;685;47.196;11.880;2023-05-21T00:37:31;5.57;;;4.33;;
1382;SDS011;685;47.196;11.880;2023-05-21T00:40:00;7.20;;;4.83;;
1382;SDS011;685;47.196;11.880;2023-05-21T00:42:28;5.83;;;4.53;;
1382;SDS011;685;47.196;11.880;2023-05-21T00:44:55;4.90;;;3.90;;
1382;SDS011;685;47.196;11.880;2023-05-21T00:47:22;5.80;;;5.03;;
1382;SDS011;685;47.196;11.880;2023-05-21T00:49:50;7.20;;;5.70;;
1382;SDS011;685;47.196;11.880;2023-05-21T00:52:18;8.40;;;5.43;;
1382;SDS011;685;47.196;11.880;2023-05-21T00:54:45;5.70;;;4.37;;
1382;SDS011;685;47.196;11.880;2023-05-21T00:57:15;7.10;;;5.23;;
1382;SDS011;685;47.196;11.880;2023-05-21T00:59:44;6.13;;;4.87;;
1382;SDS011;685;47.196;11.880;2023-05-21T01:02:12;6.40;;;5.50;;
1382;SDS011;685;47.196;11.880;2023-05-21T01:04:42;7.37;;;5.20;;
1382;SDS011;685;47.196;11.880;2023-05-21T01:07:09;6.17;;;5.37;;
1382;SDS011;685;47.196;11.880;2023-05-21T01:09:36;6.40;;;5.20;;
1382;SDS011;685;47.196;11.880;2023-05-21T01:12:04;7.60;;;4.90;;
1382;SDS011;685;47.196;11.880;2023-05-21T01:14:34;8.67;;;4.90;;
1382;SDS011;685;47.196;11.880;2023-05-21T01:17:02;6.60;;;4.73;;
1382;SDS011;685;47.196;11.880;2023-05-21T01:19:34;7.90;;;4.60;;
1382;SDS011;685;47.196;11.880;2023-05-21T01:22:02;6.50;;;5.10;;
1382;SDS011;685;47.196;11.880;2023-05-21T01:24:32;7.13;;;5.43;;
1382;SDS011;685;47.196;11.880;2023-05-21T01:27:00;6.83;;;5.87;;
1382;SDS011;685;47.196;11.880;2023-05-21T01:29:29;6.37;;;5.27;;
1382;SDS011;685;47.196;11.880;2023-05-21T01:31:58;7.33;;;5.97;;
1382;SDS011;685;47.196;11.880;2023-05-21T01:34:34;7.67;;;4.50;;
1382;SDS011;685;47.196;11.880;2023-05-21T01:37:12;6.93;;;5.10;;
1382;SDS011;685;47.196;11.880;2023-05-21T01:39:46;6.60;;;5.00;;
1382;SDS011;685;47.196;11.880;2023-05-21T01:42:18;7.10;;;5.37;;
1382;SDS011;685;47.196;11.880;2023-05-21T01:44:47;7.00;;;5.43;;
1382;SDS011;685;47.196;11.880;2023-05-21T01:47:16;8.23;;;5.03;;
1382;SDS011;685;47.196;11.880;2023-05-21T01:49:44;6.37;;;4.90;;
1382;SDS011;685;47.196;11.880;2023-05-21T01:52:11;6.00;;;4.50;;
1382;SDS011;685;47.196;11.880;2023-05-21T01:54:39;7.23;;;4.57;;
1382;SDS011;685;47.196;11.880;2023-05-21T01:57:07;6.23;;;5.03;;
1382;SDS011;685;47.196;11.880;2023-05-21T01:59:34;6.00;;;4.80;;
1382;SDS011;685;47.196;11.880;2023-05-21T02:02:01;8.20;;;4.87;;
1382;SDS011;685;47.196;11.880;2023-05-21T02:04:28;8.33;;;4.23;;
1382;SDS011;685;47.196;11.880;2023-05-21T02:06:55;7.13;;;5.43;;
1382;SDS011;685;47.196;11.880;2023-05-21T02:09:22;8.40;;;5.43;;
1382;SDS011;685;47.196;11.880;2023-05-21T02:11:49;6.97;;;5.20;;
1382;SDS011;685;47.196;11.880;2023-05-21T02:14:17;8.70;;;5.33;;
1382;SDS011;685;47.196;11.880;2023-05-21T02:16:44;8.67;;;5.60;;
1382;SDS011;685;47.196;11.880;2023-05-21T02:19:11;6.67;;;5.50;;
1382;SDS011;685;47.196;11.880;2023-05-21T02:21:38;6.33;;;5.73;;
1382;SDS011;685;47.196;11.880;2023-05-21T02:24:05;9.20;;;6.27;;
1382;SDS011;685;47.196;11.880;2023-05-21T02:26:32;7.00;;;5.17;;
1382;SDS011;685;47.196;11.880;2023-05-21T02:28:59;6.73;;;5.07;;
1382;SDS011;685;47.196;11.880;2023-05-21T02:31:27;7.03;;;5.07;;
1382;SDS011;685;47.196;11.880;2023-05-21T02:33:54;6.70;;;5.07;;
1382;SDS011;685;47.196;11.880;2023-05-21T02:36:22;6.40;;;5.33;;
1382;SDS011;685;47.196;11.880;2023-05-21T02:38:49;6.00;;;5.40;;
1382;SDS011;685;47.196;11.880;2023-05-21T02:41:16;5.97;;;4.97;;
1382;SDS011;685;47.196;11.880;2023-05-21T02:43:43;6.70;;;5.60;;
1382;SDS011;685;47.196;11.880;2023-05-21T02:46:10;6.90;;;5.50;;
1382;SDS011;685;47.196;11.880;2023-05-21T02:48:38;5.53;;;4.20;;
1382;SDS011;685;47.196;11.880;2023-05-21T02:51:05;8.07;;;5.53;;
1382;SDS011;685;47.196;11.880;2023-05-21T02:53:32;6.60;;;5.27;;
1382;SDS011;685;47.196;11.880;2023-05-21T02:55:59;6.90;;;5.10;;
1382;SDS011;685;47.196;11.880;2023-05-21T02:58:26;8.30;;;5.30;;
1382;SDS011;685;47.196;11.880;2023-05-21T03:00:53;6.90;;;5.60;;
1382;SDS011;685;47.196;11.880;2023-05-21T03:03:20;5.90;;;4.93;;
1382;SDS011;685;47.196;11.880;2023-05-21T03:05:48;8.03;;;5.00;;
1382;SDS011;685;47.196;11.880;2023-05-21T03:08:15;6.93;;;5.67;;
1382;SDS011;685;47.196;11.880;2023-05-21T03:10:42;8.03;;;5.57;;
1382;SDS011;685;47.196;11.880;2023-05-21T03:13:09;7.43;;;6.13;;
1382;SDS011;685;47.196;11.880;2023-05-21T03:15:36;6.70;;;5.00;;
1382;SDS011;685;47.196;11.880;2023-05-21T03:18:03;8.70;;;5.80;;
1382;SDS011;685;47.196;11.880;2023-05-21T03:20:30;6.87;;;5.20;;
1382;SDS011;685;47.196;11.880;2023-05-21T03:22:58;6.90;;;5.07;;
1382;SDS011;685;47.196;11.880;2023-05-21T03:25:28;7.13;;;5.10;;
1382;SDS011;685;47.196;11.880;2023-05-21T03:27:55;7.13;;;4.93;;
1382;SDS011;685;47.196;11.880;2023-05-21T03:30:22;5.63;;;4.63;;
1382;SDS011;685;47.196;11.880;2023-05-21T03:32:49;8.27;;;5.50;;
1382;SDS011;685;47.196;11.880;2023-05-21T03:35:16;7.37;;;5.70;;
1382;SDS011;685;47.196;11.880;2023-05-21T03:37:42;5.90;;;5.30;;
1382;SDS011;685;47.196;11.880;2023-05-21T03:40:12;9.80;;;5.40;;
1382;SDS011;685;47.196;11.880;2023-05-21T03:42:39;6.27;;;4.90;;
1382;SDS011;685;47.196;11.880;2023-05-21T03:45:06;7.87;;;5.33;;
1382;SDS011;685;47.196;11.880;2023-05-21T03:47:34;11.80;;;5.57;;
1382;SDS011;685;47.196;11.880;2023-05-21T03:50:01;9.63;;;5.57;;
1382;SDS011;685;47.196;11.880;2023-05-21T03:52:29;5.80;;;4.97;;
1382;SDS011;685;47.196;11.880;2023-05-21T03:54:56;6.10;;;4.73;;
1382;SDS011;685;47.196;11.880;2023-05-21T03:57:24;7.00;;;5.10;;
1382;SDS011;685;47.196;11.880;2023-05-21T03:59:51;6.97;;;5.67;;
1382;SDS011;685;47.196;11.880;2023-05-21T04:02:19;7.40;;;5.90;;
1382;SDS011;685;47.196;11.880;2023-05-21T04:04:46;7.27;;;5.80;;
1382;SDS011;685;47.196;11.880;2023-05-21T04:07:15;6.40;;;5.10;;
1382;SDS011;685;47.196;11.880;2023-05-21T04:09:43;7.50;;;5.43;;
1382;SDS011;685;47.196;11.880;2023-05-21T04:12:10;9.17;;;5.67;;
1382;SDS011;685;47.196;11.880;2023-05-21T04:14:39;7.20;;;5.37;;
1382;SDS011;685;47.196;11.880;2023-05-21T04:17:06;8.63;;;6.10;;
1382;SDS011;685;47.196;11.880;2023-05-21T04:19:33;6.83;;;5.50;;
1382;SDS011;685;47.196;11.880;2023-05-21T04:22:00;14.83;;;6.60;;
1382;SDS011;685;47.196;11.880;2023-05-21T04:24:27;14.27;;;6.20;;
1382;SDS011;685;47.196;11.880;2023-05-21T04:26:54;7.37;;;5.33;;
1382;SDS011;685;47.196;11.880;2023-05-21T04:29:25;6.07;;;5.30;;
1382;SDS011;685;47.196;11.880;2023-05-21T04:31:53;8.30;;;5.80;;
1382;SDS011;685;47.196;11.880;2023-05-21T04:34:20;12.77;;;7.00;;
1382;SDS011;685;47.196;11.880;2023-05-21T04:36:47;7.73;;;6.27;;
1382;SDS011;685;47.196;11.880;2023-05-21T04:39:16;9.10;;;5.90;;
1382;SDS011;685;47.196;11.880;2023-05-21T04:41:42;9.50;;;5.63;;
1382;SDS011;685;47.196;11.880;2023-05-21T04:44:09;8.23;;;6.30;;
1382;SDS011;685;47.196;11.880;2023-05-21T04:46:38;7.93;;;6.10;;
1382;SDS011;685;47.196;11.880;2023-05-21T04:49:08;7.00;;;5.70;;
1382;SDS011;685;47.196;11.880;2023-05-21T04:51:35;6.80;;;5.63;;
1382;SDS011;685;47.196;11.880;2023-05-21T04:54:02;8.27;;;6.60;;
1382;SDS011;685;47.196;11.880;2023-05-21T04:56:29;7.17;;;6.17;;
1382;SDS011;685;47.196;11.880;2023-05-21T04:58:56;6.20;;;5.30;;
1382;SDS011;685;47.196;11.880;2023-05-21T05:01:23;6.13;;;5.40;;
1382;SDS011;685;47.196;11.880;2023-05-21T05:03:53;8.37;;;5.57;;
1382;SDS011;685;47.196;11.880;2023-05-21T05:06:21;6.67;;;5.60;;
1382;SDS011;685;47.196;11.880;2023-05-21T05:08:49;7.27;;;5.50;;
1382;SDS011;685;47.196;11.880;2023-05-21T05:11:16;7.27;;;5.90;;
1382;SDS011;685;47.196;11.880;2023-05-21T05:13:43;7.97;;;6.37;;
1382;SDS011;685;47.196;11.880;2023-05-21T05:16:10;8.53;;;6.33;;
1382;SDS011;685;47.196;11.880;2023-05-21T05:18:38;8.73;;;6.60;;
1382;SDS011;685;47.196;11.880;2023-05-21T05:21:05;9.13;;;6.40;;
1382;SDS011;685;47.196;11.880;2023-05-21T05:23:33;8.80;;;5.83;;
1382;SDS011;685;47.196;11.880;2023-05-21T05:26:00;6.63;;;5.93;;
1382;SDS011;685;47.196;11.880;2023-05-21T05:28:27;9.33;;;6.60;;
1382;SDS011;685;47.196;11.880;2023-05-21T05:30:54;10.10;;;7.03;;
1382;SDS011;685;47.196;11.880;2023-05-21T05:33:21;10.23;;;7.10;;
1382;SDS011;685;47.196;11.880;2023-05-21T05:35:48;9.43;;;7.10;;
1382;SDS011;685;47.196;11.880;2023-05-21T05:38:15;7.83;;;6.33;;
1382;SDS011;685;47.196;11.880;2023-05-21T05:40:43;7.30;;;6.30;;
1382;SDS011;685;47.196;11.880;2023-05-21T05:43:10;10.10;;;5.97;;
1382;SDS011;685;47.196;11.880;2023-05-21T05:45:37;9.30;;;7.17;;
1382;SDS011;685;47.196;11.880;2023-05-21T05:48:04;10.13;;;6.37;;
1382;SDS011;685;47.196;11.880;2023-05-21T05:50:31;7.47;;;6.20;;
1382;SDS011;685;47.196;11.880;2023-05-21T05:52:58;10.20;;;7.37;;
1382;SDS011;685;47.196;11.880;2023-05-21T05:55:25;8.20;;;6.07;;
1382;SDS011;685;47.196;11.880;2023-05-21T05:57:53;6.00;;;5.40;;
1382;SDS011;685;47.196;11.880;2023-05-21T06:00:20;8.70;;;7.03;;
1382;SDS011;685;47.196;11.880;2023-05-21T06:02:47;7.63;;;6.80;;
1382;SDS011;685;47.196;11.880;2023-05-21T06:05:14;9.50;;;7.20;;
1382;SDS011;685;47.196;11.880;2023-05-21T06:07:41;6.80;;;6.10;;
1382;SDS011;685;47.196;11.880;2023-05-21T06:10:08;7.87;;;6.77;;
1382;SDS011;685;47.196;11.880;2023-05-21T06:12:35;9.57;;;6.83;;
1382;SDS011;685;47.196;11.880;2023-05-21T06:15:04;8.33;;;6.37;;
1382;SDS011;685;47.196;11.880;2023-05-21T06:17:32;7.50;;;5.70;;
1382;SDS011;685;47.196;11.880;2023-05-21T06:19:59;9.00;;;6.87;;
1382;SDS011;685;47.196;11.880;2023-05-21T06:22:26;9.40;;;6.50;;
1382;SDS011;685;47.196;11.880;2023-05-21T06:24:52;8.73;;;6.60;;
1382;SDS011;685;47.196;11.880;2023-05-21T06:27:19;7.57;;;6.17;;
1382;SDS011;685;47.196;11.880;2023-05-21T06:29:46;9.57;;;6.73;;
1382;SDS011;685;47.196;11.880;2023-05-21T06:32:14;9.83;;;7.13;;
1382;SDS011;685;47.196;11.880;2023-05-21T06:34:41;8.53;;;6.37;;
1382;SDS011;685;47.196;11.880;2023-05-21T06:37:08;8.30;;;6.67;;
1382;SDS011;685;47.196;11.880;2023-05-21T06:39:35;7.97;;;5.87;;
1382;SDS011;685;47.196;11.880;2023-05-21T06:42:02;9.53;;;6.67;;
1382;SDS011;685;47.196;11.880;2023-05-21T06:44:29;6.63;;;5.93;;
1382;SDS011;685;47.196;11.880;2023-05-21T06:46:56;6.80;;;5.73;;
1382;SDS011;685;47.196;11.880;2023-05-21T06:49:24;7.53;;;6.60;;
1382;SDS011;685;47.196;11.880;2023-05-21T06:51:51;7.40;;;6.47;;
1382;SDS011;685;47.196;11.880;2023-05-21T06:54:18;7.20;;;6.50;;
1382;SDS011;685;47.196;11.880;2023-05-21T06:56:45;7.07;;;5.40;;
1382;SDS011;685;47.196;11.880;2023-05-21T06:59:12;9.30;;;6.40;;
1382;SDS011;685;47.196;11.880;2023-05-21T07:01:39;7.20;;;6.23;;
1382;SDS011;685;47.196;11.880;2023-05-21T07:04:08;8.70;;;6.50;;
1382;SDS011;685;47.196;11.880;2023-05-21T07:06:36;8.27;;;6.40;;
1382;SDS011;685;47.196;11.880;2023-05-21T07:09:03;9.47;;;6.10;;
1382;SDS011;685;47.196;11.880;2023-05-21T07:11:31;8.90;;;7.03;;
1382;SDS011;685;47.196;11.880;2023-05-21T07:13:58;8.83;;;7.00;;
1382;SDS011;685;47.196;11.880;2023-05-21T07:16:25;9.00;;;6.70;;
1382;SDS011;685;47.196;11.880;2023-05-21T07:18:52;6.80;;;5.83;;
1382;SDS011;685;47.196;11.880;2023-05-21T07:21:19;10.30;;;5.87;;
1382;SDS011;685;47.196;11.880;2023-05-21T07:23:48;7.50;;;6.00;;
1382;SDS011;685;47.196;11.880;2023-05-21T07:26:15;7.53;;;5.20;;
1382;SDS011;685;47.196;11.880;2023-05-21T07:28:42;7.63;;;5.90;;
1382;SDS011;685;47.196;11.880;2023-05-21T07:31:09;7.50;;;6.37;;
1382;SDS011;685;47.196;11.880;2023-05-21T07:33:37;7.40;;;5.50;;
1382;SDS011;685;47.196;11.880;2023-05-21T07:36:04;6.77;;;5.20;;
1382;SDS011;685;47.196;11.880;2023-05-21T07:38:31;6.93;;;6.17;;
1382;SDS011;685;47.196;11.880;2023-05-21T07:41:00;9.07;;;6.13;;
1382;SDS011;685;47.196;11.880;2023-05-21T07:43:27;9.27;;;6.47;;
1382;SDS011;685;47.196;11.880;2023-05-21T07:45:54;7.27;;;6.07;;
1382;SDS011;685;47.196;11.880;2023-05-21T07:48:20;7.00;;;5.90;;
1382;SDS011;685;47.196;11.880;2023-05-21T07:50:48;6.83;;;5.70;;
1382;SDS011;685;47.196;11.880;2023-05-21T07:53:16;7.77;;;5.77;;
1382;SDS011;685;47.196;11.880;2023-05-21T07:55:43;7.50;;;5.90;;
1382;SDS011;685;47.196;11.880;2023-05-21T07:58:14;8.57;;;5.97;;
1382;SDS011;685;47.196;11.880;2023-05-21T08:00:42;7.47;;;6.40;;
1382;SDS011;685;47.196;11.880;2023-05-21T08:03:12;7.47;;;6.13;;
1382;SDS011;685;47.196;11.880;2023-05-21T08:05:41;7.70;;;5.50;;
1382;SDS011;685;47.196;11.880;2023-05-21T08:08:12;7.33;;;5.70;;
1382;SDS011;685;47.196;11.880;2023-05-21T08:10:39;8.27;;;6.63;;
1382;SDS011;685;47.196;11.880;2023-05-21T08:13:06;6.70;;;6.00;;
1382;SDS011;685;47.196;11.880;2023-05-21T08:15:34;8.43;;;6.00;;
1382;SDS011;685;47.196;11.880;2023-05-21T08:18:01;6.40;;;5.10;;
1382;SDS011;685;47.196;11.880;2023-05-21T08:20:28;7.20;;;6.00;;
1382;SDS011;685;47.196;11.880;2023-05-21T08:22:56;7.27;;;5.80;;
1382;SDS011;685;47.196;11.880;2023-05-21T08:25:24;6.87;;;5.07;;
1382;SDS011;685;47.196;11.880;2023-05-21T08:27:51;6.80;;;5.90;;
1382;SDS011;685;47.196;11.880;2023-05-21T08:30:18;9.27;;;6.40;;
1382;SDS011;685;47.196;11.880;2023-05-21T08:32:47;7.80;;;6.83;;
1382;SDS011;685;47.196;11.880;2023-05-21T08:35:14;6.07;;;5.47;;
1382;SDS011;685;47.196;11.880;2023-05-21T08:37:41;7.40;;;6.40;;
1382;SDS011;685;47.196;11.880;2023-05-21T08:40:08;6.77;;;5.63;;
1382;SDS011;685;47.196;11.880;2023-05-21T08:42:38;6.37;;;5.77;;
1382;SDS011;685;47.196;11.880;2023-05-21T08:45:10;7.37;;;6.10;;
1382;SDS011;685;47.196;11.880;2023-05-21T08:47:40;6.33;;;5.50;;
1382;SDS011;685;47.196;11.880;2023-05-21T08:50:10;7.50;;;6.17;;
1382;SDS011;685;47.196;11.880;2023-05-21T08:52:38;10.10;;;5.40;;
1382;SDS011;685;47.196;11.880;2023-05-21T08:55:06;7.50;;;5.70;;
1382;SDS011;685;47.196;11.880;2023-05-21T08:57:34;6.60;;;5.30;;
1382;SDS011;685;47.196;11.880;2023-05-21T09:00:02;6.80;;;6.10;;
1382;SDS011;685;47.196;11.880;2023-05-21T09:02:31;6.80;;;6.07;;
1382;SDS011;685;47.196;11.880;2023-05-21T09:05:00;6.60;;;5.23;;
1382;SDS011;685;47.196;11.880;2023-05-21T09:07:30;6.20;;;5.60;;
1382;SDS011;685;47.196;11.880;2023-05-21T09:10:03;8.23;;;5.97;;
1382;SDS011;685;47.196;11.880;2023-05-21T09:12:34;9.93;;;6.27;;
1382;SDS011;685;47.196;11.880;2023-05-21T09:15:01;7.83;;;6.43;;
1382;SDS011;685;47.196;11.880;2023-05-21T09:17:29;7.50;;;6.30;;
1382;SDS011;685;47.196;11.880;2023-05-21T09:20:09;7.63;;;6.00;;
1382;SDS011;685;47.196;11.880;2023-05-21T09:22:40;7.87;;;6.00;;
1382;SDS011;685;47.196;11.880;2023-05-21T09:25:08;8.07;;;6.20;;
1382;SDS011;685;47.196;11.880;2023-05-21T09:27:36;8.10;;;6.63;;
1382;SDS011;685;47.196;11.880;2023-05-21T09:30:04;9.37;;;6.20;;
1382;SDS011;685;47.196;11.880;2023-05-21T09:32:35;9.07;;;6.00;;
1382;SDS011;685;47.196;11.880;2023-05-21T09:35:06;6.60;;;5.90;;
1382;SDS011;685;47.196;11.880;2023-05-21T09:37:37;6.27;;;5.57;;
1382;SDS011;685;47.196;11.880;2023-05-21T09:40:15;12.37;;;7.87;;
1382;SDS011;685;47.196;11.880;2023-05-21T09:42:44;6.40;;;5.67;;
1382;SDS011;685;47.196;11.880;2023-05-21T09:45:16;9.40;;;6.80;;
1382;SDS011;685;47.196;11.880;2023-05-21T09:47:43;7.33;;;6.40;;
1382;SDS011;685;47.196;11.880;2023-05-21T09:50:11;7.70;;;5.90;;
1382;SDS011;685;47.196;11.880;2023-05-21T09:52:39;9.53;;;7.07;;
1382;SDS011;685;47.196;11.880;2023-05-21T09:55:07;9.90;;;6.50;;
1382;SDS011;685;47.196;11.880;2023-05-21T09:57:40;8.20;;;6.53;;
1382;SDS011;685;47.196;11.880;2023-05-21T10:00:08;8.10;;;6.73;;
1382;SDS011;685;47.196;11.880;2023-05-21T10:02:43;7.27;;;6.50;;
1382;SDS011;685;47.196;11.880;2023-05-21T10:05:11;7.13;;;6.27;;
1382;SDS011;685;47.196;11.880;2023-05-21T10:07:40;8.10;;;7.00;;
1382;SDS011;685;47.196;11.880;2023-05-21T10:10:08;7.07;;;6.37;;
1382;SDS011;685;47.196;11.880;2023-05-21T10:12:38;8.07;;;5.87;;
1382;SDS011;685;47.196;11.880;2023-05-21T10:15:11;7.20;;;6.27;;
1382;SDS011;685;47.196;11.880;2023-05-21T10:17:41;8.37;;;6.10;;
1382;SDS011;685;47.196;11.880;2023-05-21T10:20:10;8.20;;;6.03;;
1382;SDS011;685;47.196;11.880;2023-05-21T10:22:38;9.20;;;6.07;;
1382;SDS011;685;47.196;11.880;2023-05-21T10:25:05;9.50;;;5.57;;
1382;SDS011;685;47.196;11.880;2023-05-21T10:27:33;7.43;;;5.90;;
1382;SDS011;685;47.196;11.880;2023-05-21T10:30:02;7.40;;;5.80;;
1382;SDS011;685;47.196;11.880;2023-05-21T10:32:31;7.07;;;5.73;;
1382;SDS011;685;47.196;11.880;2023-05-21T10:34:58;8.30;;;5.87;;
1382;SDS011;685;47.196;11.880;2023-05-21T10:37:26;8.97;;;5.57;;
1382;SDS011;685;47.196;11.880;2023-05-21T10:39:54;7.03;;;5.33;;
1382;SDS011;685;47.196;11.880;2023-05-21T10:42:23;5.73;;;5.13;;
1382;SDS011;685;47.196;11.880;2023-05-21T10:45:15;7.10;;;4.63;;
1382;SDS011;685;47.196;11.880;2023-05-21T10:48:01;5.70;;;4.90;;
1382;SDS011;685;47.196;11.880;2023-05-21T10:50:44;5.20;;;4.37;;
1382;SDS011;685;47.196;11.880;2023-05-21T10:53:31;6.93;;;5.37;;
1382;SDS011;685;47.196;11.880;2023-05-21T10:56:13;6.73;;;5.30;;
1382;SDS011;685;47.196;11.880;2023-05-21T10:59:04;6.50;;;4.60;;
1382;SDS011;685;47.196;11.880;2023-05-21T11:01:40;7.20;;;5.50;;
1382;SDS011;685;47.196;11.880;2023-05-21T11:04:09;7.67;;;4.70;;
1382;SDS011;685;47.196;11.880;2023-05-21T11:06:39;22.67;;;6.23;;
1382;SDS011;685;47.196;11.880;2023-05-21T11:09:12;6.23;;;4.97;;
1382;SDS011;685;47.196;11.880;2023-05-21T11:11:41;6.23;;;4.50;;
1382;SDS011;685;47.196;11.880;2023-05-21T11:14:25;6.50;;;4.70;;
1382;SDS011;685;47.196;11.880;2023-05-21T11:17:00;7.47;;;5.27;;
1382;SDS011;685;47.196;11.880;2023-05-21T11:19:31;5.90;;;4.73;;
1382;SDS011;685;47.196;11.880;2023-05-21T11:22:03;9.27;;;4.90;;
1382;SDS011;685;47.196;11.880;2023-05-21T11:24:32;5.93;;;4.87;;
1382;SDS011;685;47.196;11.880;2023-05-21T11:27:03;6.33;;;4.87;;
1382;SDS011;685;47.196;11.880;2023-05-21T11:29:40;6.53;;;4.80;;
1382;SDS011;685;47.196;11.880;2023-05-21T11:32:10;7.00;;;5.00;;
1382;SDS011;685;47.196;11.880;2023-05-21T11:34:38;6.37;;;4.60;;
1382;SDS011;685;47.196;11.880;2023-05-21T11:40:15;5.97;;;4.60;;
1382;SDS011;685;47.196;11.880;2023-05-21T11:42:48;5.80;;;4.60;;
1382;SDS011;685;47.196;11.880;2023-05-21T11:45:17;5.70;;;4.70;;
1382;SDS011;685;47.196;11.880;2023-05-21T11:47:46;6.50;;;5.03;;
1382;SDS011;685;47.196;11.880;2023-05-21T11:50:14;7.03;;;5.10;;
1382;SDS011;685;47.196;11.880;2023-05-21T11:52:41;6.80;;;4.40;;
1382;SDS011;685;47.196;11.880;2023-05-21T11:55:09;6.00;;;4.70;;
1382;SDS011;685;47.196;11.880;2023-05-21T11:57:36;6.20;;;4.77;;
1382;SDS011;685;47.196;11.880;2023-05-21T12:00:11;5.43;;;4.90;;
1382;SDS011;685;47.196;11.880;2023-05-21T12:02:42;5.20;;;4.00;;
1382;SDS011;685;47.196;11.880;2023-05-21T12:05:12;6.27;;;4.40;;
1382;SDS011;685;47.196;11.880;2023-05-21T12:07:39;5.17;;;4.33;;
1382;SDS011;685;47.196;11.880;2023-05-21T12:10:06;6.50;;;5.23;;
1382;SDS011;685;47.196;11.880;2023-05-21T12:12:34;5.50;;;4.67;;
1382;SDS011;685;47.196;11.880;2023-05-21T12:15:01;5.87;;;4.73;;
1382;SDS011;685;47.196;11.880;2023-05-21T12:17:29;5.87;;;5.03;;
1382;SDS011;685;47.196;11.880;2023-05-21T12:19:57;4.70;;;4.03;;
1382;SDS011;685;47.196;11.880;2023-05-21T12:22:27;5.93;;;4.20;;
1382;SDS011;685;47.196;11.880;2023-05-21T12:24:54;7.20;;;4.67;;
1382;SDS011;685;47.196;11.880;2023-05-21T12:27:22;7.13;;;4.70;;
1382;SDS011;685;47.196;11.880;2023-05-21T12:29:49;5.93;;;4.47;;
1382;SDS011;685;47.196;11.880;2023-05-21T12:32:17;6.90;;;4.47;;
1382;SDS011;685;47.196;11.880;2023-05-21T12:34:47;5.87;;;4.60;;
1382;SDS011;685;47.196;11.880;2023-05-21T12:37:15;5.30;;;3.97;;
1382;SDS011;685;47.196;11.880;2023-05-21T12:39:46;6.47;;;4.20;;
1382;SDS011;685;47.196;11.880;2023-05-21T12:42:14;5.20;;;3.80;;
1382;SDS011;685;47.196;11.880;2023-05-21T12:44:42;5.13;;;3.97;;
1382;SDS011;685;47.196;11.880;2023-05-21T12:47:10;4.87;;;4.37;;
1382;SDS011;685;47.196;11.880;2023-05-21T12:49:38;6.37;;;4.87;;
1382;SDS011;685;47.196;11.880;2023-05-21T12:52:09;5.27;;;3.93;;
1382;SDS011;685;47.196;11.880;2023-05-21T12:54:37;6.37;;;4.57;;
1382;SDS011;685;47.196;11.880;2023-05-21T12:57:07;4.90;;;4.27;;
1382;SDS011;685;47.196;11.880;2023-05-21T12:59:42;4.63;;;3.70;;
1382;SDS011;685;47.196;11.880;2023-05-21T13:02:12;5.40;;;4.60;;
1382;SDS011;685;47.196;11.880;2023-05-21T13:04:44;6.07;;;4.57;;
1382;SDS011;685;47.196;11.880;2023-05-21T13:07:11;5.40;;;4.57;;
1382;SDS011;685;47.196;11.880;2023-05-21T13:09:38;6.73;;;4.50;;
1382;SDS011;685;47.196;11.880;2023-05-21T13:12:06;5.90;;;4.60;;
1382;SDS011;685;47.196;11.880;2023-05-21T13:14:33;6.33;;;4.60;;
1382;SDS011;685;47.196;11.880;2023-05-21T13:17:00;5.30;;;4.27;;
1382;SDS011;685;47.196;11.880;2023-05-21T13:19:27;6.47;;;4.70;;
1382;SDS011;685;47.196;11.880;2023-05-21T13:21:54;5.30;;;4.60;;
1382;SDS011;685;47.196;11.880;2023-05-21T13:24:21;6.00;;;4.37;;
1382;SDS011;685;47.196;11.880;2023-05-21T13:26:48;5.77;;;4.10;;
1382;SDS011;685;47.196;11.880;2023-05-21T13:29:16;6.03;;;3.97;;
1382;SDS011;685;47.196;11.880;2023-05-21T13:31:43;5.23;;;4.73;;
1382;SDS011;685;47.196;11.880;2023-05-21T13:34:10;6.10;;;4.70;;
1382;SDS011;685;47.196;11.880;2023-05-21T13:36:37;6.40;;;4.20;;
1382;SDS011;685;47.196;11.880;2023-05-21T13:39:04;7.90;;;4.63;;
1382;SDS011;685;47.196;11.880;2023-05-21T13:41:32;5.80;;;3.93;;
1382;SDS011;685;47.196;11.880;2023-05-21T13:43:59;6.40;;;3.80;;
1382;SDS011;685;47.196;11.880;2023-05-21T13:46:27;7.57;;;4.40;;
1382;SDS011;685;47.196;11.880;2023-05-21T13:48:54;8.83;;;4.60;;
1382;SDS011;685;47.196;11.880;2023-05-21T13:51:21;5.50;;;4.10;;
1382;SDS011;685;47.196;11.880;2023-05-21T13:53:48;5.13;;;4.40;;
1382;SDS011;685;47.196;11.880;2023-05-21T13:56:14;4.60;;;3.83;;
1382;SDS011;685;47.196;11.880;2023-05-21T13:58:41;4.67;;;3.90;;
1382;SDS011;685;47.196;11.880;2023-05-21T14:01:08;6.00;;;4.20;;
1382;SDS011;685;47.196;11.880;2023-05-21T14:03:37;5.83;;;4.47;;
1382;SDS011;685;47.196;11.880;2023-05-21T14:06:04;7.40;;;4.40;;
1382;SDS011;685;47.196;11.880;2023-05-21T14:08:32;5.37;;;4.33;;
1382;SDS011;685;47.196;11.880;2023-05-21T14:10:59;5.67;;;4.00;;
1382;SDS011;685;47.196;11.880;2023-05-21T14:13:26;6.23;;;4.47;;
1382;SDS011;685;47.196;11.880;2023-05-21T14:15:53;5.47;;;4.30;;
1382;SDS011;685;47.196;11.880;2023-05-21T14:18:20;5.20;;;4.30;;
1382;SDS011;685;47.196;11.880;2023-05-21T14:20:49;5.37;;;3.90;;
1382;SDS011;685;47.196;11.880;2023-05-21T14:23:15;5.37;;;3.53;;
1382;SDS011;685;47.196;11.880;2023-05-21T14:25:42;5.83;;;4.17;;
1382;SDS011;685;47.196;11.880;2023-05-21T14:28:09;5.67;;;3.70;;
1382;SDS011;685;47.196;11.880;2023-05-21T14:30:36;5.60;;;3.80;;
1382;SDS011;685;47.196;11.880;2023-05-21T14:33:03;5.10;;;3.83;;
1382;SDS011;685;47.196;11.880;2023-05-21T14:35:30;5.07;;;3.97;;
1382;SDS011;685;47.196;11.880;2023-05-21T14:37:58;3.90;;;3.20;;
1382;SDS011;685;47.196;11.880;2023-05-21T14:40:25;5.83;;;4.47;;
1382;SDS011;685;47.196;11.880;2023-05-21T14:42:52;5.40;;;4.10;;
1382;SDS011;685;47.196;11.880;2023-05-21T14:45:20;5.40;;;4.60;;
1382;SDS011;685;47.196;11.880;2023-05-21T14:47:47;4.87;;;3.97;;
1382;SDS011;685;47.196;11.880;2023-05-21T14:50:14;5.20;;;3.70;;
1382;SDS011;685;47.196;11.880;2023-05-21T14:52:42;6.17;;;4.40;;
1382;SDS011;685;47.196;11.880;2023-05-21T14:55:10;4.30;;;2.90;;
1382;SDS011;685;47.196;11.880;2023-05-21T14:57:40;4.87;;;3.97;;
1382;SDS011;685;47.196;11.880;2023-05-21T15:00:07;5.63;;;3.87;;
1382;SDS011;685;47.196;11.880;2023-05-21T15:02:35;5.37;;;4.30;;
1382;SDS011;685;47.196;11.880;2023-05-21T15:05:02;4.50;;;3.67;;
1382;SDS011;685;47.196;11.880;2023-05-21T15:07:29;4.60;;;3.60;;
1382;SDS011;685;47.196;11.880;2023-05-21T15:09:56;4.80;;;3.77;;
1382;SDS011;685;47.196;11.880;2023-05-21T15:12:25;5.20;;;3.47;;
1382;SDS011;685;47.196;11.880;2023-05-21T15:14:51;10.50;;;4.10;;
1382;SDS011;685;47.196;11.880;2023-05-21T15:17:19;3.60;;;2.63;;
1382;SDS011;685;47.196;11.880;2023-05-21T15:19:45;5.07;;;3.37;;
1382;SDS011;685;47.196;11.880;2023-05-21T15:22:12;5.10;;;3.30;;
1382;SDS011;685;47.196;11.880;2023-05-21T15:24:39;4.90;;;3.57;;